Time;durP1;ratioP1;P1;durP2;ratioP2;P2;SDS_P1;SDS_P2;PMS_P1;PMS_P2;Temp;Humidity;BMP_temperature;BMP_pressure;BME280_temperature;BME280_humidity;BME280_pressure;Samples;Min_cycle;Max_cycle;Signal;HPM_P1;HPM_P2
2022/07/16 00:04:45;;;;;;;0.32;0.32;;;;;;;15.48;74.37;99826.34;10574364;28;20525;-72
2022/07/16 00:09:47;;;;;;;0.43;0.30;;;;;;;15.44;74.32;99826.16;10574849;28;20047;-76
2022/07/16 00:14:49;;;;;;;0.40;0.20;;;;;;;15.33;74.27;99842.34;10543428;28;20525;-73
2022/07/16 00:19:52;;;;;;;1.75;0.22;;;;;;;15.23;74.57;99839.13;10559731;28;20051;-73
2022/07/16 00:24:54;;;;;;;0.47;0.40;;;;;;;15.22;74.17;99845.78;10550163;28;20040;-73
2022/07/16 00:29:57;;;;;;;0.30;0.30;;;;;;;15.17;74.74;99844.03;10593535;28;20048;-73
2022/07/16 00:34:59;;;;;;;2.58;0.38;;;;;;;15.17;75.14;99844.03;10589345;28;20051;-73
2022/07/16 00:40:02;;;;;;;1.15;0.20;;;;;;;15.15;75.24;99854.59;10558972;28;20494;-73
2022/07/16 00:45:05;;;;;;;0.50;0.43;;;;;;;15.14;75.21;99866.81;10572953;28;20513;-73
2022/07/16 00:50:07;;;;;;;0.20;0.20;;;;;;;15.16;75.04;99864.53;10567763;28;20342;-72
2022/07/16 00:55:10;;;;;;;0.75;0.30;;;;;;;15.21;75.38;99864.31;10603597;28;20413;-72
2022/07/16 01:00:12;;;;;;;0.28;0.28;;;;;;;15.13;76.08;99854.13;10604734;28;20036;-72
2022/07/16 01:05:15;;;;;;;0.47;0.40;;;;;;;15.19;76.21;99855.56;10572158;28;20071;-72
2022/07/16 01:10:18;;;;;;;0.30;0.22;;;;;;;15.13;76.50;99853.31;10552040;28;20043;-73
2022/07/16 01:15:20;;;;;;;4.95;0.73;;;;;;;15.05;75.99;99866.81;10584300;28;20093;-73
2022/07/16 01:20:22;;;;;;;0.20;0.20;;;;;;;15.01;76.35;99865.06;10571467;28;20043;-73
2022/07/16 01:25:27;;;;;;;0.63;0.20;;;;;;;14.97;76.38;99872.38;10570291;28;20044;-73
2022/07/16 01:30:29;;;;;;;0.77;0.30;;;;;;;14.90;76.60;99877.59;10585884;28;20067;-73
2022/07/16 01:35:31;;;;;;;2.00;0.38;;;;;;;14.89;76.46;99873.19;10545152;28;20441;-73
2022/07/16 01:40:34;;;;;;;0.30;0.30;;;;;;;14.93;76.32;99868.66;10552663;28;20047;-73
2022/07/16 01:45:36;;;;;;;0.40;0.40;;;;;;;14.91;76.71;99865.41;10570780;28;20047;-73
2022/07/16 01:50:42;;;;;;;1.48;0.40;;;;;;;14.94;76.58;99873.06;10568295;28;20047;-73
2022/07/16 01:55:45;;;;;;;0.30;0.30;;;;;;;14.86;76.73;99871.91;10527563;28;20052;-73
2022/07/16 02:00:47;;;;;;;0.40;0.40;;;;;;;14.82;76.22;99865.44;10568132;28;20040;-73
2022/07/16 02:05:50;;;;;;;0.50;0.50;;;;;;;14.82;76.67;99872.91;10566512;28;20427;-73
2022/07/16 02:10:52;;;;;;;0.52;0.40;;;;;;;14.78;76.31;99876.31;10551698;28;20044;-73
2022/07/16 02:15:54;;;;;;;0.47;0.47;;;;;;;14.72;76.59;99877.63;10550856;28;20040;-74
2022/07/16 02:20:56;;;;;;;0.28;0.25;;;;;;;14.63;76.55;99890.63;10567508;28;20039;-73
2022/07/16 02:25:59;;;;;;;0.38;0.28;;;;;;;14.59;76.49;99897.16;10569389;28;20063;-73
2022/07/16 02:31:02;;;;;;;0.52;0.50;;;;;;;14.57;76.40;99902.97;10565167;28;20497;-73
2022/07/16 02:36:05;;;;;;;0.40;0.30;;;;;;;14.60;76.64;99896.81;10547900;28;20047;-73
2022/07/16 02:41:07;;;;;;;0.55;0.20;;;;;;;14.59;76.99;99906.25;10568161;28;20059;-73
2022/07/16 02:46:09;;;;;;;0.30;0.30;;;;;;;14.61;76.75;99914.19;10566967;28;20042;-73
2022/07/16 02:51:12;;;;;;;1.15;0.47;;;;;;;14.64;77.42;99914.34;10573393;28;20040;-73
2022/07/16 02:56:15;;;;;;;0.30;0.30;;;;;;;14.66;76.73;99919.53;10572040;28;20060;-73
2022/07/16 03:01:17;;;;;;;0.50;0.40;;;;;;;14.67;77.31;99916.47;10568839;28;20529;-73
2022/07/16 03:06:20;;;;;;;0.20;0.17;;;;;;;14.72;77.13;99912.72;10551587;28;20048;-73
2022/07/16 03:11:23;;;;;;;0.65;0.43;;;;;;;14.73;77.06;99920.66;10568342;28;20040;-73
2022/07/16 03:16:25;;;;;;;0.30;0.30;;;;;;;14.77;76.59;99915.31;10576503;28;20413;-73
2022/07/16 03:21:27;;;;;;;0.47;0.47;;;;;;;14.92;76.45;99922.25;10558134;28;20080;-73
2022/07/16 03:26:30;;;;;;;0.17;0.10;;;;;;;14.96;76.37;99929.59;10577293;28;20041;-72
2022/07/16 03:31:32;;;;;;;0.38;0.38;;;;;;;15.05;75.12;99924.84;10577282;28;20040;-73
2022/07/16 03:36:35;;;;;;;0.40;0.40;;;;;;;15.08;74.55;99924.19;10586458;28;20541;-72
2022/07/16 03:41:38;;;;;;;0.75;0.57;;;;;;;15.61;73.37;99930.38;10576839;28;20517;-73
2022/07/16 03:46:41;;;;;;;1.10;0.38;;;;;;;15.73;72.08;99938.78;10556650;28;20048;-72
2022/07/16 03:51:43;;;;;;;1.05;0.32;;;;;;;16.42;70.33;99949.47;10558434;28;20040;-73
2022/07/16 03:56:46;;;;;;;0.22;0.22;;;;;;;17.18;68.21;99943.59;10538413;28;20044;-73
2022/07/16 04:01:48;;;;;;;0.75;0.38;;;;;;;17.21;67.03;99944.88;10566316;28;20044;-73
2022/07/16 04:06:50;;;;;;;0.30;0.30;;;;;;;17.25;66.05;99948.59;10555308;28;20470;-73
2022/07/16 04:11:53;;;;;;;1.55;0.30;;;;;;;17.51;65.29;99953.00;10573962;28;20040;-73
2022/07/16 04:16:55;;;;;;;0.93;0.50;;;;;;;17.92;63.45;99955.66;10574114;28;20036;-74
2022/07/16 04:21:57;;;;;;;0.63;0.40;;;;;;;18.20;63.34;99954.91;10556510;28;20036;-74
2022/07/16 04:27:00;;;;;;;0.50;0.50;;;;;;;18.39;62.23;99955.13;10556409;28;20044;-74
2022/07/16 04:32:02;;;;;;;0.88;0.40;;;;;;;18.73;61.07;99962.13;10565206;28;20048;-74
2022/07/16 04:37:05;;;;;;;0.60;0.40;;;;;;;19.03;59.37;99968.16;10523426;28;20048;-73
2022/07/16 04:42:07;;;;;;;0.28;0.20;;;;;;;19.51;57.93;99977.41;10555759;28;20080;-74
2022/07/16 04:47:10;;;;;;;0.65;0.28;;;;;;;20.04;55.97;99976.03;10573584;28;20052;-74
2022/07/16 04:52:13;;;;;;;0.30;0.30;;;;;;;20.65;54.09;99981.06;10554869;28;20415;-74
2022/07/16 04:57:16;;;;;;;0.55;0.30;;;;;;;20.96;52.39;99990.44;10573180;28;20031;-74
2022/07/16 05:07:38;;;;;;;0.30;0.30;;;;;;;21.18;50.07;99991.72;10557300;28;20043;-74
2022/07/16 05:12:41;;;;;;;0.38;0.30;;;;;;;21.35;48.79;100000.47;10554299;28;20040;-74
2022/07/16 05:17:43;;;;;;;0.52;0.20;;;;;;;21.17;49.66;100004.03;10572317;28;20051;-74
2022/07/16 05:22:45;;;;;;;0.17;0.17;;;;;;;21.41;48.64;99997.38;10554126;28;20047;-74
2022/07/16 05:27:48;;;;;;;1.17;0.13;;;;;;;21.94;46.06;99999.13;10571711;28;20062;-74
2022/07/16 05:32:50;;;;;;;1.38;0.30;;;;;;;21.95;45.81;100000.75;10571058;28;20541;-74
2022/07/16 05:37:53;;;;;;;0.20;0.20;;;;;;;22.02;45.04;99993.66;10550086;28;20529;-74
2022/07/16 05:42:55;;;;;;;0.22;0.20;;;;;;;22.06;45.96;100005.75;10558862;28;20047;-74
2022/07/16 05:47:57;;;;;;;0.10;0.10;;;;;;;22.25;45.04;100008.44;10577270;28;20410;-74
2022/07/16 05:53:00;;;;;;;0.93;0.20;;;;;;;22.29;44.05;100012.09;10570278;28;20048;-74
2022/07/16 05:58:02;;;;;;;0.30;0.30;;;;;;;22.51;43.80;100013.22;10575216;28;20039;-74
2022/07/16 06:03:05;;;;;;;0.20;0.10;;;;;;;22.68;42.32;100011.88;10612757;28;20446;-74
2022/07/16 06:08:07;;;;;;;0.32;0.28;;;;;;;23.11;42.69;100022.50;10569845;28;20040;-74
2022/07/16 06:13:10;;;;;;;0.10;0.10;;;;;;;23.55;40.70;100018.97;10552133;28;20039;-74
2022/07/16 06:18:12;;;;;;;1.05;0.10;;;;;;;23.96;39.78;100028.25;10566387;28;20047;-74
2022/07/16 06:23:15;;;;;;;0.20;0.20;;;;;;;24.11;39.64;100036.75;10550093;28;20505;-74
2022/07/16 06:28:17;;;;;;;0.43;0.22;;;;;;;24.38;39.73;100038.22;10569782;28;20047;-74
2022/07/16 06:33:19;;;;;;;0.40;0.22;;;;;;;24.34;40.60;100037.41;10572675;28;20533;-74
2022/07/16 06:38:22;;;;;;;0.95;0.38;;;;;;;25.03;38.81;100033.84;10530842;28;20044;-74
2022/07/16 06:43:24;;;;;;;1.33;0.60;;;;;;;24.78;38.33;100045.69;10569382;28;20405;-74
2022/07/16 06:48:26;;;;;;;1.30;0.50;;;;;;;24.92;37.12;100048.59;10571899;28;20051;-74
2022/07/16 06:53:29;;;;;;;1.10;0.40;;;;;;;25.12;37.42;100048.31;10577261;28;20054;-74
2022/07/16 06:58:31;;;;;;;1.05;0.75;;;;;;;25.18;37.77;100052.38;10597790;28;20046;-74
2022/07/16 07:03:34;;;;;;;1.40;0.60;;;;;;;24.78;37.63;100042.09;10587211;28;20498;-74
2022/07/16 07:08:36;;;;;;;0.35;0.30;;;;;;;24.65;37.00;100041.63;10578088;28;20051;-74
2022/07/16 07:13:39;;;;;;;1.38;0.32;;;;;;;24.25;38.81;100045.28;10558342;28;20067;-74
2022/07/16 07:18:41;;;;;;;1.08;0.30;;;;;;;24.62;38.51;100046.00;10559003;28;20410;-74
2022/07/16 07:23:43;;;;;;;1.35;0.45;;;;;;;24.81;37.03;100049.72;10587194;28;20039;-74
2022/07/16 07:28:45;;;;;;;0.25;0.25;;;;;;;24.88;38.22;100053.38;10600764;28;20047;-74
2022/07/16 07:33:48;;;;;;;0.75;0.32;;;;;;;25.05;37.66;100053.91;10600440;28;20055;-74
2022/07/16 07:38:50;;;;;;;1.17;0.55;;;;;;;25.01;36.67;100061.50;10603773;28;20040;-74
2022/07/16 07:43:52;;;;;;;0.45;0.28;;;;;;;24.67;37.22;100058.06;10576277;28;20040;-74
2022/07/16 07:48:54;;;;;;;0.40;0.40;;;;;;;24.14;37.81;100066.84;10565426;28;20037;-74
2022/07/16 07:53:57;;;;;;;1.20;0.45;;;;;;;23.82;39.19;100072.13;10533397;28;20067;-74
2022/07/16 07:58:59;;;;;;;0.80;0.40;;;;;;;23.60;38.58;100076.66;10561748;28;20414;-74
2022/07/16 08:04:01;;;;;;;1.05;0.50;;;;;;;23.53;39.02;100079.38;10559228;28;20052;-74
2022/07/16 08:09:04;;;;;;;0.40;0.40;;;;;;;23.49;38.70;100087.75;10539502;28;20044;-74
2022/07/16 08:14:06;;;;;;;0.40;0.40;;;;;;;23.38;39.11;100090.41;10539787;28;20063;-74
2022/07/16 08:19:09;;;;;;;3.65;0.45;;;;;;;23.26;39.62;100089.84;10574093;28;20044;-74
2022/07/16 08:29:32;;;;;;;0.47;0.40;;;;;;;23.30;39.26;100088.72;10558205;28;20047;-74
2022/07/16 08:34:34;;;;;;;0.40;0.40;;;;;;;23.38;38.68;100090.41;10550035;28;20040;-74
2022/07/16 08:39:43;;;;;;;2.38;0.43;;;;;;;23.31;39.20;100087.50;10546095;28;20047;-75
2022/07/16 08:44:46;;;;;;;2.53;0.50;;;;;;;22.89;39.58;100098.91;10554838;28;20039;-74
2022/07/16 08:49:49;;;;;;;2.03;0.50;;;;;;;23.09;39.36;100102.44;10555075;28;20441;-74
2022/07/16 08:54:52;;;;;;;0.52;0.52;;;;;;;23.23;39.35;100101.78;10573145;28;20425;-75
2022/07/16 08:59:55;;;;;;;2.42;0.57;;;;;;;22.58;40.46;100107.63;10572319;28;20047;-75
2022/07/16 09:04:59;;;;;;;4.03;0.73;;;;;;;21.88;42.14;100109.56;10571785;28;20048;-74
2022/07/16 09:10:06;;;;;;;1.27;0.50;;;;;;;21.25;42.64;100117.44;10572999;28;20612;-74
2022/07/16 09:15:25;;;;;;;0.90;0.55;;;;;;;21.16;43.02;100114.00;10571082;28;20044;-74
2022/07/16 09:20:30;;;;;;;2.33;0.80;;;;;;;21.81;42.39;100111.41;10537664;28;20043;-75
2022/07/16 09:25:32;;;;;;;0.75;0.52;;;;;;;22.37;41.26;100117.25;10571887;28;20036;-74
2022/07/16 09:30:37;;;;;;;0.45;0.45;;;;;;;23.00;39.87;100113.88;10553632;28;20048;-74
2022/07/16 09:35:41;;;;;;;0.55;0.55;;;;;;;22.98;40.79;100113.47;10571597;28;20070;-74
2022/07/16 09:40:45;;;;;;;0.73;0.50;;;;;;;22.73;40.33;100118.63;10570743;28;20035;-74
2022/07/16 09:45:59;;;;;;;0.50;0.50;;;;;;;22.18;41.21;100122.91;10570800;28;20048;-74
2022/07/16 09:51:14;;;;;;;0.50;0.50;;;;;;;21.64;42.03;100135.00;10552267;28;20032;-74
2022/07/16 09:56:22;;;;;;;0.35;0.32;;;;;;;21.07;42.69;100142.13;10570811;28;20040;-74
2022/07/16 10:01:24;;;;;;;0.60;0.50;;;;;;;20.77;43.81;100139.84;10510889;28;20410;-74
2022/07/16 10:06:27;;;;;;;0.60;0.60;;;;;;;20.51;44.44;100142.41;10514624;28;20040;-74
2022/07/16 10:11:29;;;;;;;0.38;0.38;;;;;;;20.61;44.52;100149.41;10570406;28;20047;-74
2022/07/16 10:16:43;;;;;;;0.77;0.65;;;;;;;20.56;44.57;100155.25;10549610;28;20051;-74
2022/07/16 10:22:11;;;;;;;1.60;0.40;;;;;;;20.47;44.58;100152.63;10518018;28;20063;-74
2022/07/16 10:27:42;;;;;;;1.00;0.55;;;;;;;20.55;45.13;100156.41;10569409;28;20036;-74
2022/07/16 10:32:59;;;;;;;1.38;0.45;;;;;;;20.46;45.95;100164.94;10567570;28;20422;-74
2022/07/16 10:38:07;;;;;;;1.65;0.63;;;;;;;20.54;46.50;100166.75;10566320;28;20048;-74
2022/07/16 10:43:10;;;;;;;2.80;0.50;;;;;;;20.63;46.62;100172.94;10568623;28;20070;-74
2022/07/16 10:48:12;;;;;;;0.45;0.45;;;;;;;20.50;46.22;100171.44;10519431;28;20162;-74
2022/07/16 10:53:14;;;;;;;0.40;0.40;;;;;;;20.23;46.57;100181.44;10562136;28;20532;-74
2022/07/16 10:58:19;;;;;;;1.60;0.70;;;;;;;19.99;48.00;100176.81;10551165;28;20046;-73
2022/07/16 11:03:23;;;;;;;1.02;0.60;;;;;;;20.03;49.06;100179.69;10560708;28;20037;-73
2022/07/16 11:08:25;;;;;;;1.33;0.50;;;;;;;20.24;48.67;100173.91;10567587;28;20518;-73
2022/07/16 11:13:28;;;;;;;0.43;0.43;;;;;;;20.25;48.19;100181.09;10565349;28;20719;-73
2022/07/16 11:18:37;;;;;;;3.10;0.47;;;;;;;20.40;48.51;100186.69;10533417;28;20517;-73
2022/07/16 11:23:51;;;;;;;1.83;0.47;;;;;;;20.56;47.16;100203.44;10547959;28;20036;-74
2022/07/16 11:29:00;;;;;;;1.58;0.60;;;;;;;20.50;46.71;100201.28;10530848;28;20040;-74
2022/07/16 11:34:05;;;;;;;1.20;0.70;;;;;;;20.26;46.67;100210.56;10565356;28;20418;-75
2022/07/16 11:39:10;;;;;;;1.75;1.00;;;;;;;19.98;45.91;100210.59;10592231;28;20042;-74
2022/07/16 11:44:20;;;;;;;0.70;0.70;;;;;;;19.77;46.51;100219.13;10574613;28;20059;-74
2022/07/16 11:49:32;;;;;;;1.10;0.70;;;;;;;19.47;48.56;100208.31;10557662;28;20040;-75
2022/07/16 11:54:39;;;;;;;1.02;0.70;;;;;;;19.09;52.12;100222.63;10575033;28;20036;-75
2022/07/16 11:59:52;;;;;;;;;;;;;;;18.76;53.87;100235.81;10553881;28;20506;-75
2022/07/16 12:04:57;;;;;;;0.93;0.70;;;;;;;18.55;54.22;100253.31;10564628;28;19919;-75
2022/07/16 12:10:02;;;;;;;1.13;1.00;;;;;;;18.43;53.75;100263.63;10609070;28;20406;-75
2022/07/16 12:15:12;;;;;;;1.80;0.88;;;;;;;18.27;53.71;100272.59;10585748;28;20506;-76
2022/07/16 12:20:27;;;;;;;1.27;0.82;;;;;;;18.07;56.09;100290.09;10582720;28;20564;-75
2022/07/16 12:25:36;;;;;;;1.38;0.80;;;;;;;17.76;59.31;100302.41;10577773;28;20040;-76
2022/07/16 12:30:55;;;;;;;2.45;1.00;;;;;;;17.44;61.98;100303.09;10567350;28;20048;-74
2022/07/16 12:35:57;;;;;;;1.35;0.80;;;;;;;17.12;64.65;100310.09;10547030;28;20040;-75
2022/07/16 12:41:00;;;;;;;2.70;1.30;;;;;;;17.06;66.55;100314.22;10529492;28;20052;-75
2022/07/16 12:46:06;;;;;;;1.20;1.00;;;;;;;17.10;66.31;100317.94;10553559;28;20048;-75
2022/07/16 12:51:11;;;;;;;1.48;0.85;;;;;;;17.12;66.28;100319.22;10576306;28;20036;-76
2022/07/16 13:01:35;;;;;;;1.35;0.70;;;;;;;17.30;64.89;100319.16;10563442;28;20033;-73
2022/07/16 13:06:38;;;;;;;1.02;0.55;;;;;;;17.25;64.22;100327.66;10579011;28;20043;-72
2022/07/16 13:11:41;;;;;;;0.70;0.60;;;;;;;17.24;63.72;100314.94;10558534;28;20498;-72
2022/07/16 13:16:43;;;;;;;2.65;0.95;;;;;;;17.32;64.03;100308.53;10574177;28;20041;-73
2022/07/16 13:21:46;;;;;;;1.95;0.80;;;;;;;17.36;61.81;100307.56;10564822;28;20040;-73
2022/07/16 13:26:48;;;;;;;1.15;0.70;;;;;;;17.37;61.02;100298.09;10612992;28;20048;-73
2022/07/16 13:31:50;;;;;;;0.90;0.43;;;;;;;17.46;60.56;100307.16;10574980;28;20040;-72
2022/07/16 13:36:53;;;;;;;0.90;0.50;;;;;;;17.39;60.54;100315.19;10584525;27;20063;-72
2022/07/16 13:41:55;;;;;;;1.20;0.95;;;;;;;17.30;61.19;100327.47;10553171;28;20498;-73
2022/07/16 13:46:58;;;;;;;1.42;0.82;;;;;;;17.02;64.71;100343.75;10610226;28;20048;-73
2022/07/16 13:52:01;;;;;;;0.95;0.50;;;;;;;16.44;69.03;100362.56;10572298;28;20040;-74
2022/07/16 14:02:25;;;;;;;2.58;0.57;;;;;;;15.80;71.66;100354.09;10597236;28;20035;-74
2022/07/16 14:07:28;;;;;;;0.50;0.50;;;;;;;15.74;71.96;100354.56;10602664;28;20056;-74
2022/07/16 14:12:30;;;;;;;0.70;0.50;;;;;;;15.98;73.12;100349.41;10572389;28;20043;-73
2022/07/16 14:17:32;;;;;;;1.55;0.80;;;;;;;16.17;71.81;100352.66;10569747;28;20040;-73
2022/07/16 14:22:35;;;;;;;0.93;0.75;;;;;;;16.16;70.00;100351.03;10567748;28;20035;-73
2022/07/16 14:27:37;;;;;;;0.90;0.80;;;;;;;16.21;69.76;100358.34;10588454;28;20036;-73
2022/07/16 14:32:41;;;;;;;0.60;0.60;;;;;;;16.28;70.65;100353.94;10566192;28;20043;-73
2022/07/16 14:37:44;;;;;;;0.93;0.60;;;;;;;16.32;69.96;100364.38;10550411;28;20048;-73
2022/07/16 14:42:47;;;;;;;1.10;0.90;;;;;;;16.35;68.63;100364.53;10566439;28;20043;-73
2022/07/16 14:47:50;;;;;;;1.15;0.70;;;;;;;16.31;68.21;100358.00;10550572;28;20055;-73
2022/07/16 14:52:52;;;;;;;0.50;0.50;;;;;;;16.24;67.93;100361.28;10584008;28;20039;-73
2022/07/16 14:57:55;;;;;;;0.30;0.30;;;;;;;16.28;66.45;100369.75;10581776;28;20048;-73
2022/07/16 15:02:57;;;;;;;1.25;0.65;;;;;;;16.23;65.43;100372.69;10567029;28;20036;-73
2022/07/16 15:07:59;;;;;;;0.40;0.40;;;;;;;16.24;66.08;100368.78;10514014;28;20411;-73
2022/07/16 15:13:02;;;;;;;0.70;0.63;;;;;;;16.29;66.38;100382.44;10576588;28;20537;-73
2022/07/16 15:18:04;;;;;;;0.45;0.45;;;;;;;16.25;65.33;100387.00;10575276;28;20040;-73
2022/07/16 15:23:06;;;;;;;1.80;1.35;;;;;;;16.17;65.22;100387.84;10576326;28;20040;-73
2022/07/16 15:28:09;;;;;;;1.70;0.90;;;;;;;16.15;64.96;100388.16;10574766;28;20103;-73
2022/07/16 15:38:32;;;;;;;0.40;0.40;;;;;;;16.02;59.96;100393.84;10567274;28;20051;-74
2022/07/16 15:43:35;;;;;;;1.45;0.80;;;;;;;16.09;58.36;100388.63;10575856;28;20035;-73
2022/07/16 15:48:38;;;;;;;1.58;0.65;;;;;;;16.18;57.85;100395.00;10551697;28;20043;-73
2022/07/16 15:53:40;;;;;;;1.10;0.55;;;;;;;16.14;58.15;100396.75;10573401;28;20043;-73
2022/07/16 15:58:42;;;;;;;0.70;0.60;;;;;;;16.31;58.55;100393.19;10558246;28;20040;-73
2022/07/16 16:03:45;;;;;;;1.98;0.75;;;;;;;16.43;58.97;100405.25;10570291;28;20036;-73
2022/07/16 16:08:48;;;;;;;3.13;0.75;;;;;;;16.56;59.38;100400.69;10566299;28;20036;-73
2022/07/16 16:13:51;;;;;;;1.42;1.00;;;;;;;16.58;58.68;100402.00;10574030;28;20035;-73
2022/07/16 16:18:53;;;;;;;0.85;0.75;;;;;;;16.48;58.87;100409.81;10555164;28;20130;-73
2022/07/16 16:23:55;;;;;;;2.03;1.10;;;;;;;16.47;60.00;100411.75;10571237;28;20396;-73
2022/07/16 16:28:58;;;;;;;2.95;1.33;;;;;;;16.54;59.69;100398.25;10550367;28;20056;-73
2022/07/16 16:34:00;;;;;;;1.30;1.02;;;;;;;16.53;60.08;100407.72;10561081;28;20422;-73
2022/07/16 16:39:04;;;;;;;1.63;0.85;;;;;;;16.54;59.32;100414.06;10565793;28;20044;-73
2022/07/16 16:44:06;;;;;;;2.58;1.42;;;;;;;16.49;59.59;100414.22;10555734;28;20055;-73
2022/07/16 16:49:08;;;;;;;0.80;0.80;;;;;;;16.54;59.49;100414.88;10569225;28;20385;-73
2022/07/16 16:54:11;;;;;;;1.13;0.73;;;;;;;16.58;60.13;100413.06;10571555;28;20044;-73
2022/07/16 16:59:13;;;;;;;0.82;0.73;;;;;;;16.58;59.94;100409.50;10553015;28;20048;-73
2022/07/16 17:04:15;;;;;;;0.55;0.50;;;;;;;16.53;58.60;100416.00;10571035;28;20400;-73
2022/07/16 17:09:18;;;;;;;1.95;1.20;;;;;;;16.54;59.09;100423.19;10569981;28;20039;-73
2022/07/16 17:14:20;;;;;;;0.73;0.57;;;;;;;16.59;58.52;100416.66;10572220;28;20048;-73
2022/07/16 17:19:23;;;;;;;0.70;0.68;;;;;;;16.60;57.56;100415.50;10570493;28;20051;-73
2022/07/16 17:24:25;;;;;;;1.80;0.68;;;;;;;16.59;57.59;100417.47;10553790;28;20036;-73
2022/07/16 17:29:27;;;;;;;1.30;0.90;;;;;;;16.55;57.23;100424.81;10552090;28;20051;-73
2022/07/16 17:34:29;;;;;;;1.48;0.88;;;;;;;16.61;57.39;100421.88;10515558;28;20056;-73
2022/07/16 17:39:32;;;;;;;1.40;0.90;;;;;;;16.57;57.73;100421.72;10558362;28;20036;-73
2022/07/16 17:44:34;;;;;;;1.25;0.82;;;;;;;16.54;57.56;100425.94;10549017;28;20044;-73
2022/07/16 17:49:51;;;;;;;0.60;0.60;;;;;;;16.56;57.77;100425.63;10557962;28;20043;-73
2022/07/16 17:54:55;;;;;;;;;;;;;;;16.45;57.80;100421.53;10552134;28;20046;-73
2022/07/16 17:59:57;;;;;;;1.20;0.70;;;;;;;16.39;58.47;100433.94;10551916;28;19927;-74
2022/07/16 18:04:59;;;;;;;1.05;0.65;;;;;;;16.44;58.61;100423.50;10569975;28;20138;-73
2022/07/16 18:10:01;;;;;;;0.77;0.50;;;;;;;16.32;59.22;100431.66;10551766;28;20039;-73
2022/07/16 18:15:05;;;;;;;0.85;0.60;;;;;;;16.24;59.32;100438.78;10564400;28;20046;-73
2022/07/16 18:20:08;;;;;;;0.75;0.70;;;;;;;16.27;60.09;100440.09;10579377;28;20047;-73
2022/07/16 18:25:10;;;;;;;1.00;0.65;;;;;;;16.25;60.35;100436.84;10567479;28;20044;-73
2022/07/16 18:30:12;;;;;;;2.30;1.63;;;;;;;16.22;60.73;100452.16;10544252;28;20047;-73
2022/07/16 18:35:15;;;;;;;1.33;1.20;;;;;;;16.27;60.94;100459.47;10544819;28;20244;-73
2022/07/16 18:40:17;;;;;;;3.35;1.20;;;;;;;16.23;61.48;100462.09;10548990;28;20526;-73
2022/07/16 18:45:19;;;;;;;1.25;0.93;;;;;;;16.22;62.15;100467.94;10569062;28;20048;-73
2022/07/16 18:50:22;;;;;;;1.20;1.10;;;;;;;16.15;62.74;100468.44;10567883;28;20044;-73
2022/07/16 18:55:24;;;;;;;2.78;1.00;;;;;;;16.15;63.15;100476.75;10567324;28;20048;-74
2022/07/16 19:00:26;;;;;;;2.35;1.25;;;;;;;16.10;63.67;100479.63;10548880;28;20040;-76
2022/07/16 19:05:28;;;;;;;1.42;1.02;;;;;;;16.05;64.23;100477.03;10570307;28;20538;-76
2022/07/16 19:10:32;;;;;;;2.92;1.08;;;;;;;16.04;64.39;100471.81;10545382;28;20036;-77
2022/07/16 19:15:35;;;;;;;2.40;1.08;;;;;;;15.97;64.61;100473.13;10534414;28;20410;-71
2022/07/16 19:20:38;;;;;;;2.05;0.80;;;;;;;15.92;64.36;100475.19;10541026;28;20413;-71
2022/07/16 19:25:41;;;;;;;1.40;0.88;;;;;;;15.89;64.83;100473.06;10544756;28;20044;-71
2022/07/16 19:30:45;;;;;;;0.98;0.70;;;;;;;15.83;64.77;100466.88;10552003;28;20510;-71
2022/07/16 19:35:48;;;;;;;1.67;0.75;;;;;;;15.61;63.69;100480.78;10554079;28;20040;-71
2022/07/16 19:40:50;;;;;;;0.40;0.40;;;;;;;15.31;64.67;100488.75;10540158;28;20047;-71
2022/07/16 19:45:53;;;;;;;1.35;0.57;;;;;;;14.97;65.69;100491.28;10529494;28;20036;-71
2022/07/16 19:50:55;;;;;;;0.88;0.68;;;;;;;14.69;66.40;100504.38;10553154;28;20036;-71
2022/07/16 20:01:18;;;;;;;0.98;0.85;;;;;;;14.46;67.79;100504.34;10542487;28;20040;-73
2022/07/16 20:06:22;;;;;;;0.68;0.57;;;;;;;14.41;68.21;100511.91;10564865;28;20403;-72
2022/07/16 20:11:25;;;;;;;3.78;1.50;;;;;;;14.43;69.41;100512.41;10561230;28;20039;-71
2022/07/16 20:16:27;;;;;;;0.77;0.40;;;;;;;14.40;69.39;100510.22;10559723;28;20055;-71
2022/07/16 20:21:31;;;;;;;0.70;0.70;;;;;;;14.37;68.99;100519.13;10557619;28;20047;-71
2022/07/16 20:26:34;;;;;;;1.13;0.50;;;;;;;14.37;69.66;100516.38;10559548;28;20039;-74
2022/07/16 20:31:36;;;;;;;0.70;0.60;;;;;;;14.38;69.89;100529.06;10558077;28;20048;-73
2022/07/16 20:36:38;;;;;;;1.38;0.80;;;;;;;14.36;70.42;100525.78;10562178;28;20047;-73
2022/07/16 20:41:41;;;;;;;1.17;0.82;;;;;;;14.36;70.22;100531.31;10571306;28;20044;-78
2022/07/16 20:46:43;;;;;;;0.65;0.63;;;;;;;14.32;71.14;100525.59;10572571;28;20051;-76
2022/07/16 20:51:45;;;;;;;1.77;1.00;;;;;;;14.34;70.91;100533.56;10568245;28;20048;-82
2022/07/16 20:56:51;;;;;;;0.65;0.65;;;;;;;14.35;71.74;100524.97;10564677;28;20056;-81
2022/07/16 21:01:53;;;;;;;1.60;0.90;;;;;;;14.31;70.99;100532.25;10552297;28;20036;-82
2022/07/16 21:06:56;;;;;;;3.65;1.60;;;;;;;14.29;71.31;100523.47;10581809;28;20040;-83
2022/07/16 21:12:00;;;;;;;2.38;0.90;;;;;;;14.30;70.96;100527.03;10568483;28;20051;-72
2022/07/16 21:17:02;;;;;;;1.95;0.70;;;;;;;14.30;70.96;100521.50;10565391;28;20524;-77
2022/07/16 21:22:05;;;;;;;1.25;1.00;;;;;;;14.28;70.76;100530.09;10581216;28;20039;-78
2022/07/16 21:27:08;;;;;;;2.30;0.90;;;;;;;14.28;70.53;100538.38;10577863;28;20049;-80
2022/07/16 21:32:10;;;;;;;0.70;0.70;;;;;;;14.28;70.50;100534.81;10549103;28;20067;-80
2022/07/16 21:37:12;;;;;;;2.67;0.93;;;;;;;14.26;70.53;100542.59;10563111;28;20051;-79
2022/07/16 21:42:15;;;;;;;2.20;0.90;;;;;;;14.27;70.80;100550.56;10566972;28;20040;-79
2022/07/16 21:47:17;;;;;;;1.70;1.13;;;;;;;14.23;70.78;100559.72;10556148;28;20036;-78
2022/07/16 21:52:21;;;;;;;3.00;1.17;;;;;;;14.19;71.16;100562.28;10573840;28;20039;-79
2022/07/16 21:57:28;;;;;;;2.75;1.33;;;;;;;14.12;71.63;100570.19;10568997;28;20044;-79
2022/07/16 22:02:30;;;;;;;3.83;1.40;;;;;;;14.13;72.43;100566.28;10581491;28;20039;-78
2022/07/16 22:07:33;;;;;;;3.63;1.23;;;;;;;14.07;72.06;100579.38;10576348;28;20478;-80
2022/07/16 22:12:36;;;;;;;1.70;1.25;;;;;;;13.99;72.44;100577.31;10563804;28;20036;-78
2022/07/16 22:17:38;;;;;;;1.70;1.00;;;;;;;13.93;72.77;100584.06;10567480;28;20045;-78
2022/07/16 22:22:42;;;;;;;3.30;1.08;;;;;;;13.88;73.51;100582.22;10552599;28;20047;-77
2022/07/16 22:27:46;;;;;;;3.38;1.17;;;;;;;13.89;73.70;100583.06;10564961;28;20059;-79
2022/07/16 22:32:48;;;;;;;2.45;1.52;;;;;;;13.90;74.43;100579.16;10548694;28;20036;-78
2022/07/16 22:37:51;;;;;;;2.03;1.27;;;;;;;13.84;74.22;100585.88;10569117;28;20047;-78
2022/07/16 22:42:53;;;;;;;2.03;1.10;;;;;;;13.82;75.13;100582.59;10548367;28;20040;-78
2022/07/16 22:47:56;;;;;;;2.70;0.80;;;;;;;13.74;75.41;100583.31;10532584;28;20036;-79
2022/07/16 22:52:59;;;;;;;2.88;1.17;;;;;;;13.70;75.67;100585.03;10569434;28;20032;-79
2022/07/16 22:58:06;;;;;;;1.98;1.10;;;;;;;13.67;77.04;100586.47;10565481;28;20040;-79
2022/07/16 23:03:08;;;;;;;3.28;1.08;;;;;;;13.67;76.39;100580.94;10557933;28;20040;-76
2022/07/16 23:08:11;;;;;;;3.35;1.08;;;;;;;13.64;77.10;100591.78;10577541;28;20043;-78
2022/07/16 23:13:13;;;;;;;2.15;1.20;;;;;;;13.61;77.58;100595.94;10547928;28;20036;-78
2022/07/16 23:18:15;;;;;;;3.88;1.50;;;;;;;13.64;77.62;100587.06;10549218;28;20039;-81
2022/07/16 23:23:18;;;;;;;1.65;1.25;;;;;;;13.62;78.23;100583.81;10565720;28;20035;-85
2022/07/16 23:28:20;;;;;;;1.40;0.98;;;;;;;13.58;78.21;100586.34;10545383;28;20040;-75
2022/07/16 23:33:23;;;;;;;3.17;1.50;;;;;;;13.56;78.32;100588.59;10561762;28;20047;-76
2022/07/16 23:38:26;;;;;;;1.63;0.82;;;;;;;13.48;77.98;100592.03;10580723;28;20036;-76
2022/07/16 23:43:29;;;;;;;2.92;1.00;;;;;;;13.43;77.26;100599.56;10557406;28;20036;-76
2022/07/16 23:48:33;;;;;;;2.17;0.73;;;;;;;13.36;77.70;100590.84;10588148;28;20032;-76
2022/07/16 23:53:35;;;;;;;1.95;0.95;;;;;;;13.33;77.65;100594.22;10553234;28;20048;-76